createdAt,value
2019-01-12T00:00:41.137Z,15.83
2019-01-12T00:03:12.214Z,16.00
2019-01-12T00:05:45.119Z,16.83
2019-01-12T00:08:17.787Z,16.83
2019-01-12T00:10:48.421Z,14.37
2019-01-12T00:13:19.129Z,12.50
2019-01-12T00:15:49.689Z,20.57
2019-01-12T00:18:21.564Z,18.70
2019-01-12T00:20:53.536Z,16.07
2019-01-12T00:23:24.286Z,16.00
2019-01-12T00:25:54.920Z,14.07
2019-01-12T00:28:26.118Z,12.87
2019-01-12T00:30:57.841Z,15.73
2019-01-12T00:33:28.907Z,16.00
2019-01-12T00:35:59.471Z,12.87
2019-01-12T00:38:30.075Z,13.62
2019-01-12T00:41:01.411Z,12.83
2019-01-12T00:43:35.013Z,17.17
2019-01-12T00:46:05.857Z,14.63
2019-01-12T00:48:37.922Z,14.57
2019-01-12T00:51:09.322Z,15.30
2019-01-12T00:53:39.923Z,19.83
2019-01-12T00:56:10.694Z,15.80
2019-01-12T00:58:41.826Z,18.73
2019-01-12T01:01:12.746Z,18.57
2019-01-12T01:03:43.706Z,17.50
2019-01-12T01:06:14.915Z,16.70
2019-01-12T01:08:46.935Z,19.90
2019-01-12T01:11:18.631Z,20.33
2019-01-12T01:13:51.853Z,23.63
2019-01-12T01:16:22.956Z,18.03
2019-01-12T01:18:57.976Z,16.83
2019-01-12T01:21:28.916Z,18.80
2019-01-12T01:24:02.972Z,19.23
2019-01-12T01:26:33.638Z,20.30
2019-01-12T01:29:04.536Z,19.17
2019-01-12T01:31:39.972Z,19.70
2019-01-12T01:34:10.520Z,18.10
2019-01-12T01:36:41.775Z,21.97
2019-01-12T01:39:12.404Z,20.13
2019-01-12T01:41:42.937Z,19.53
2019-01-12T01:44:14.092Z,15.67
2019-01-12T01:46:44.733Z,17.70
2019-01-12T01:49:15.832Z,20.20
2019-01-12T01:51:46.502Z,16.33
2019-01-12T01:54:17.298Z,17.40
2019-01-12T01:56:51.406Z,20.57
2019-01-12T01:59:23.001Z,20.53
2019-01-12T02:01:53.665Z,19.13
2019-01-12T02:04:24.660Z,19.70
2019-01-12T02:06:55.938Z,19.43
2019-01-12T02:09:26.908Z,21.40
2019-01-12T02:11:58.054Z,18.67
2019-01-12T02:14:29.695Z,20.70
2019-01-12T02:17:00.599Z,19.93
2019-01-12T02:19:32.106Z,19.70
2019-01-12T02:22:03.425Z,17.43
2019-01-12T02:24:37.276Z,19.47
2019-01-12T02:27:08.499Z,22.03
2019-01-12T02:29:39.723Z,23.33
2019-01-12T02:32:10.276Z,20.57
2019-01-12T02:34:41.502Z,24.47
2019-01-12T02:37:12.338Z,19.40
2019-01-12T02:39:43.804Z,23.97
2019-01-12T02:42:15.622Z,22.63
2019-01-12T02:44:46.975Z,23.07
2019-01-12T02:47:17.989Z,22.70
2019-01-12T02:49:49.129Z,22.80
2019-01-12T02:52:20.040Z,23.77
2019-01-12T02:54:50.517Z,20.23
2019-01-12T02:57:21.528Z,22.37
2019-01-12T02:59:54.019Z,24.03
2019-01-12T03:02:24.662Z,25.03
2019-01-12T03:04:55.431Z,23.30
2019-01-12T03:07:25.885Z,24.80
2019-01-12T03:09:56.458Z,27.83
2019-01-12T03:12:27.012Z,24.40
2019-01-12T03:14:57.661Z,25.93
2019-01-12T03:17:29.100Z,26.33
2019-01-12T03:20:01.189Z,29.23
2019-01-12T03:22:32.237Z,24.73
2019-01-12T03:25:03.331Z,26.87
2019-01-12T03:27:34.044Z,24.03
2019-01-12T03:30:13.487Z,26.40
2019-01-12T03:32:46.464Z,23.10
2019-01-12T03:35:17.619Z,25.30
2019-01-12T03:37:48.439Z,20.80
2019-01-12T03:40:21.497Z,21.17
2019-01-12T03:42:52.885Z,26.27
2019-01-12T03:45:25.677Z,20.40
2019-01-12T03:47:58.279Z,21.17
2019-01-12T03:50:32.670Z,24.87
2019-01-12T03:53:08.154Z,25.00
2019-01-12T03:55:40.188Z,26.90
2019-01-12T03:58:11.871Z,22.47
2019-01-12T04:00:44.305Z,23.23
2019-01-12T04:03:15.635Z,21.10
2019-01-12T04:05:46.680Z,20.90
2019-01-12T04:08:17.385Z,21.70
2019-01-12T04:10:47.980Z,21.67
2019-01-12T04:13:18.720Z,25.17
2019-01-12T04:15:49.577Z,25.07
2019-01-12T04:18:28.844Z,23.17
2019-01-12T04:21:08.122Z,25.43
2019-01-12T04:23:41.917Z,25.97
2019-01-12T04:26:14.552Z,20.83
2019-01-12T04:28:46.021Z,22.13
2019-01-12T04:31:16.897Z,22.37
2019-01-12T04:33:48.694Z,21.83
2019-01-12T04:36:22.458Z,24.47
2019-01-12T04:38:54.871Z,23.97
2019-01-12T04:41:26.596Z,23.27
2019-01-12T04:43:58.259Z,25.93
2019-01-12T04:46:28.874Z,21.63
2019-01-12T04:48:59.681Z,29.80
2019-01-12T04:51:30.274Z,22.97
2019-01-12T04:54:01.146Z,25.53
2019-01-12T04:56:33.432Z,23.03
2019-01-12T04:59:04.948Z,25.27
2019-01-12T05:01:35.501Z,26.13
2019-01-12T05:04:06.338Z,26.57
2019-01-12T05:06:37.367Z,25.33
2019-01-12T05:09:08.743Z,26.67
2019-01-12T05:11:39.250Z,25.23
2019-01-12T05:14:09.762Z,21.70
2019-01-12T05:16:42.676Z,22.80
2019-01-12T05:19:13.349Z,23.87
2019-01-12T05:21:44.834Z,24.87
2019-01-12T05:24:15.844Z,24.73
2019-01-12T05:26:47.347Z,25.33
2019-01-12T05:29:17.894Z,23.47
2019-01-12T05:31:51.410Z,24.33
2019-01-12T05:34:22.388Z,26.27
2019-01-12T05:36:53.303Z,27.27
2019-01-12T05:39:24.433Z,24.43
2019-01-12T05:41:55.620Z,24.40
2019-01-12T05:44:26.346Z,20.90
2019-01-12T05:46:57.315Z,21.57
2019-01-12T05:49:27.822Z,24.53
2019-01-12T05:51:59.300Z,24.30
2019-01-12T05:54:29.809Z,23.17
2019-01-12T05:57:00.784Z,25.10
2019-01-12T05:59:31.771Z,24.97
2019-01-12T06:02:02.749Z,24.27
2019-01-12T06:04:33.542Z,25.97
2019-01-12T06:07:05.808Z,25.57
2019-01-12T06:09:36.415Z,29.80
2019-01-12T06:12:07.345Z,27.17
2019-01-12T06:14:37.899Z,26.60
2019-01-12T06:17:11.772Z,25.73
2019-01-12T06:19:42.383Z,28.60
2019-01-12T06:22:19.404Z,28.80
2019-01-12T06:24:53.679Z,21.87
2019-01-12T06:27:24.354Z,30.37
2019-01-12T06:29:55.331Z,31.43
2019-01-12T06:32:26.903Z,27.13
2019-01-12T06:34:58.147Z,25.40
2019-01-12T06:37:29.198Z,24.47
2019-01-12T06:39:59.718Z,23.10
2019-01-12T06:42:30.540Z,22.50
2019-01-12T06:45:06.011Z,22.97
2019-01-12T06:47:37.012Z,26.03
2019-01-12T06:50:12.219Z,21.30
2019-01-12T06:52:43.100Z,22.03
2019-01-12T06:55:13.773Z,22.80
2019-01-12T06:57:44.868Z,19.07
2019-01-12T07:00:19.555Z,19.17
2019-01-12T07:02:54.883Z,20.73
2019-01-12T07:05:25.458Z,25.40
2019-01-12T07:07:57.303Z,26.07
2019-01-12T07:10:28.328Z,24.80
2019-01-12T07:12:59.518Z,29.43
2019-01-12T07:15:30.125Z,27.10
2019-01-12T07:18:01.105Z,29.70
2019-01-12T07:20:32.696Z,25.60
2019-01-12T07:23:06.754Z,26.00
2019-01-12T07:25:37.154Z,25.47
2019-01-12T07:28:08.371Z,27.90
2019-01-12T07:30:39.270Z,32.37
2019-01-12T07:33:12.973Z,28.37
2019-01-12T07:35:43.883Z,28.97
2019-01-12T07:38:17.054Z,29.83
2019-01-12T07:40:47.909Z,29.83
2019-01-12T07:43:18.561Z,31.63
2019-01-12T07:45:49.168Z,36.30
2019-01-12T07:48:19.922Z,30.27
2019-01-12T07:50:50.907Z,37.33
2019-01-12T07:53:21.752Z,34.03
2019-01-12T07:55:52.375Z,29.40
2019-01-12T07:58:23.031Z,32.80
2019-01-12T08:00:53.581Z,33.83
2019-01-12T08:03:27.654Z,30.17
2019-01-12T08:05:58.329Z,35.93
2019-01-12T08:08:28.925Z,31.70
2019-01-12T08:10:59.754Z,38.83
2019-01-12T08:13:32.016Z,33.10
2019-01-12T08:16:02.755Z,33.37
2019-01-12T08:18:34.967Z,45.63
2019-01-12T08:21:05.870Z,41.30
2019-01-12T08:23:37.264Z,41.70
2019-01-12T08:26:07.898Z,37.00
2019-01-12T08:28:39.378Z,36.70
2019-01-12T08:31:10.391Z,37.73
2019-01-12T08:33:40.967Z,37.53
2019-01-12T08:36:11.510Z,37.03
2019-01-12T08:38:42.114Z,33.83
2019-01-12T08:41:12.641Z,35.90
2019-01-12T08:43:43.040Z,37.57
2019-01-12T08:46:13.519Z,39.73
2019-01-12T08:48:44.057Z,42.80
2019-01-12T08:51:14.623Z,39.20
2019-01-12T08:53:45.098Z,37.13
2019-01-12T08:56:16.604Z,41.60
2019-01-12T08:58:47.083Z,38.40
2019-01-12T09:01:17.682Z,38.43
2019-01-12T09:03:48.251Z,39.00
2019-01-12T09:06:22.298Z,35.67
2019-01-12T09:08:52.885Z,37.00
2019-01-12T09:11:23.637Z,36.67
2019-01-12T09:13:54.536Z,33.13
2019-01-12T09:16:25.060Z,33.57
2019-01-12T09:18:55.745Z,38.00
2019-01-12T09:21:26.349Z,33.87
2019-01-12T09:23:58.601Z,35.80
2019-01-12T09:26:30.296Z,31.30
2019-01-12T09:29:01.530Z,34.30
2019-01-12T09:31:33.222Z,35.70
2019-01-12T09:34:03.880Z,31.87
2019-01-12T09:36:34.439Z,30.47
2019-01-12T09:39:07.619Z,26.93
2019-01-12T09:41:38.304Z,32.43
2019-01-12T09:44:09.030Z,28.37
2019-01-12T09:46:39.493Z,28.10
2019-01-12T09:49:10.139Z,33.57
2019-01-12T09:51:42.324Z,33.13
2019-01-12T09:54:13.302Z,33.60
2019-01-12T09:56:43.804Z,31.00
2019-01-12T09:59:15.043Z,34.73
2019-01-12T10:01:45.534Z,38.77
2019-01-12T10:04:15.959Z,38.70
2019-01-12T10:06:46.450Z,40.37
2019-01-12T10:09:16.976Z,39.63
2019-01-12T10:11:47.582Z,38.03
2019-01-12T10:14:19.301Z,38.13
2019-01-12T10:16:51.058Z,37.90
2019-01-12T10:19:21.659Z,39.77
2019-01-12T10:21:52.630Z,36.10
2019-01-12T10:24:24.024Z,42.40
2019-01-12T10:26:58.500Z,37.50
2019-01-12T10:29:26.766Z,36.47
2019-01-12T10:32:01.208Z,34.43
2019-01-12T10:34:32.132Z,35.07
2019-01-12T10:37:04.389Z,31.73
2019-01-12T10:39:35.676Z,32.10
2019-01-12T10:42:09.015Z,32.03
2019-01-12T10:44:40.098Z,32.93
2019-01-12T10:47:11.031Z,30.47
2019-01-12T10:49:41.868Z,33.20
2019-01-12T10:52:12.409Z,27.03
2019-01-12T10:54:43.018Z,25.93
2019-01-12T10:57:20.021Z,30.33
2019-01-12T10:59:49.518Z,27.27
2019-01-12T11:02:23.131Z,26.53
2019-01-12T11:04:55.526Z,26.37
2019-01-12T11:07:26.316Z,29.43
2019-01-12T11:09:56.968Z,25.90
2019-01-12T11:12:32.287Z,29.63
2019-01-12T11:15:03.834Z,30.50
2019-01-12T11:17:34.475Z,25.63
2019-01-12T11:20:09.364Z,24.97
2019-01-12T11:22:40.058Z,30.03
2019-01-12T11:25:14.986Z,24.60
2019-01-12T11:27:45.699Z,23.20
2019-01-12T11:30:19.661Z,21.70
2019-01-12T11:32:51.110Z,28.80
2019-01-12T11:35:22.859Z,29.80
2019-01-12T11:37:53.769Z,22.70
2019-01-12T11:40:24.469Z,25.50
2019-01-12T11:42:55.109Z,26.93
2019-01-12T11:45:26.132Z,30.57
2019-01-12T11:47:56.700Z,30.83
2019-01-12T11:50:27.626Z,36.67
2019-01-12T11:52:58.972Z,27.67
2019-01-12T11:55:30.312Z,33.57
2019-01-12T11:58:00.928Z,34.60
2019-01-12T12:00:34.911Z,33.03
2019-01-12T12:03:05.313Z,33.40
2019-01-12T12:05:36.532Z,31.77
2019-01-12T12:08:07.824Z,33.67
2019-01-12T12:10:38.414Z,32.03
2019-01-12T12:13:10.458Z,31.23
2019-01-12T12:15:41.765Z,31.13
2019-01-12T12:18:13.235Z,32.50
2019-01-12T12:20:44.404Z,30.83
2019-01-12T12:23:15.366Z,32.67
2019-01-12T12:25:46.854Z,32.17
2019-01-12T12:28:18.335Z,36.67
2019-01-12T12:30:49.090Z,37.90
2019-01-12T12:33:20.805Z,34.60
2019-01-12T12:35:51.438Z,32.63
2019-01-12T12:38:24.838Z,32.90
2019-01-12T12:40:55.386Z,30.97
2019-01-12T12:43:26.210Z,32.77
2019-01-12T12:45:56.787Z,27.70
2019-01-12T12:48:27.290Z,34.10
2019-01-12T12:50:58.019Z,38.27
2019-01-12T12:53:28.845Z,28.27
2019-01-12T12:55:59.649Z,32.23
2019-01-12T12:58:30.718Z,34.43
2019-01-12T13:01:04.400Z,30.00
2019-01-12T13:03:35.173Z,30.07
2019-01-12T13:06:06.154Z,31.07
2019-01-12T13:08:38.356Z,30.93
2019-01-12T13:11:08.945Z,27.83
2019-01-12T13:13:39.558Z,29.37
2019-01-12T13:16:11.485Z,30.63
2019-01-12T13:18:43.236Z,34.17
2019-01-12T13:21:15.588Z,26.00
2019-01-12T13:23:46.795Z,30.97
2019-01-12T13:26:21.401Z,30.80
2019-01-12T13:28:51.880Z,34.87
2019-01-12T13:31:24.437Z,34.50
2019-01-12T13:33:56.813Z,30.10
2019-01-12T13:36:30.712Z,27.63
2019-01-12T13:39:01.353Z,30.60
2019-01-12T13:41:31.924Z,25.93
2019-01-12T13:44:02.500Z,27.20
2019-01-12T13:46:34.421Z,28.17
2019-01-12T13:49:04.996Z,25.43
2019-01-12T13:51:36.764Z,28.50
2019-01-12T13:54:11.781Z,30.20
2019-01-12T13:56:42.483Z,29.23
2019-01-12T13:59:14.008Z,27.20
2019-01-12T14:01:44.624Z,25.60
2019-01-12T14:04:15.266Z,27.47
2019-01-12T14:06:45.828Z,25.43
2019-01-12T14:09:16.458Z,29.40
2019-01-12T14:11:47.136Z,27.23
2019-01-12T14:14:17.724Z,25.37
2019-01-12T14:16:49.052Z,26.43
2019-01-12T14:19:19.681Z,29.87
2019-01-12T14:21:50.536Z,27.37
2019-01-12T14:24:22.708Z,29.93
2019-01-12T14:26:54.129Z,32.73
2019-01-12T14:29:24.773Z,31.00
2019-01-12T14:31:55.768Z,32.07
2019-01-12T14:34:26.410Z,36.10
2019-01-12T14:37:00.850Z,30.43
2019-01-12T14:39:32.501Z,33.13
2019-01-12T14:42:03.181Z,32.10
2019-01-12T14:44:33.909Z,33.17
2019-01-12T14:47:04.562Z,28.70
2019-01-12T14:49:35.818Z,31.10
2019-01-12T14:52:07.603Z,33.40
2019-01-12T14:54:39.156Z,30.67
2019-01-12T14:57:13.103Z,27.57
2019-01-12T14:59:47.459Z,28.90
2019-01-12T15:02:23.141Z,27.80
2019-01-12T15:04:59.217Z,29.83
2019-01-12T15:07:32.523Z,26.50
2019-01-12T15:10:07.869Z,29.83
2019-01-12T15:12:39.218Z,26.07
2019-01-12T15:15:18.660Z,31.93
2019-01-12T15:17:51.042Z,29.50
2019-01-12T15:20:29.836Z,27.97
2019-01-12T15:23:00.810Z,25.33
2019-01-12T15:25:33.206Z,30.43
2019-01-12T15:28:09.323Z,30.63
2019-01-12T15:30:40.955Z,29.07
2019-01-12T15:33:11.839Z,26.63
2019-01-12T15:35:42.799Z,27.60
2019-01-12T15:38:17.351Z,27.50
2019-01-12T15:40:48.756Z,27.83
2019-01-12T15:43:19.457Z,25.60
2019-01-12T15:45:50.103Z,28.03
2019-01-12T15:48:22.499Z,31.00
2019-01-12T15:50:55.829Z,24.80
2019-01-12T15:53:26.384Z,33.00
2019-01-12T15:55:57.020Z,27.27
2019-01-12T15:58:27.488Z,24.43
2019-01-12T16:00:58.212Z,26.23
2019-01-12T16:03:28.790Z,25.97
2019-01-12T16:05:59.321Z,29.53
2019-01-12T16:08:33.794Z,28.20
2019-01-12T16:11:04.819Z,25.67
2019-01-12T16:13:35.400Z,26.23
2019-01-12T16:16:10.134Z,25.43
2019-01-12T16:18:40.751Z,28.13
2019-01-12T16:21:20.703Z,26.40
2019-01-12T16:23:53.758Z,28.17
2019-01-12T16:26:24.406Z,24.20
2019-01-12T16:28:55.784Z,25.63
2019-01-12T16:31:28.282Z,30.27
2019-01-12T16:34:00.630Z,30.60
2019-01-12T16:36:31.827Z,23.33
2019-01-12T16:41:41.342Z,30.33
2019-01-12T16:44:12.226Z,24.77
2019-01-12T16:46:42.898Z,26.97
2019-01-12T16:49:13.551Z,27.57
2019-01-12T16:51:45.028Z,29.00
2019-01-12T16:54:17.157Z,25.10
2019-01-12T16:56:50.028Z,26.77
2019-01-12T16:59:20.301Z,25.80
2019-01-12T17:01:56.014Z,28.97
2019-01-12T17:04:27.561Z,28.10
2019-01-12T17:07:01.642Z,30.37
2019-01-12T17:09:32.724Z,31.77
2019-01-12T17:12:03.522Z,33.13
2019-01-12T17:14:34.633Z,35.47
2019-01-12T17:17:05.343Z,47.70
2019-01-12T17:19:35.989Z,40.17
2019-01-12T17:22:06.876Z,37.00
2019-01-12T17:24:43.395Z,40.40
2019-01-12T17:27:14.443Z,34.37
2019-01-12T17:29:46.136Z,35.90
2019-01-12T17:32:23.498Z,30.67
2019-01-12T17:34:55.414Z,30.53
2019-01-12T17:37:26.025Z,35.97
2019-01-12T17:39:58.190Z,34.70
2019-01-12T17:42:28.923Z,33.00
2019-01-12T17:44:59.498Z,31.37
2019-01-12T17:47:30.113Z,32.27
2019-01-12T17:50:00.813Z,29.40
2019-01-12T17:52:31.614Z,28.67
2019-01-12T17:55:09.067Z,28.67
2019-01-12T17:57:42.092Z,31.37
2019-01-12T18:00:21.404Z,28.13
2019-01-12T18:02:52.035Z,29.03
2019-01-12T18:05:23.285Z,26.83
2019-01-12T18:07:54.130Z,27.77
2019-01-12T18:10:26.086Z,22.30
2019-01-12T18:12:57.183Z,25.17
2019-01-12T18:15:32.081Z,27.77
2019-01-12T18:18:02.977Z,25.87
2019-01-12T18:20:33.637Z,23.50
2019-01-12T18:23:05.766Z,27.93
2019-01-12T18:25:36.551Z,37.90
2019-01-12T18:28:07.513Z,26.23
2019-01-12T18:30:39.982Z,26.97
2019-01-12T18:33:13.326Z,23.67
2019-01-12T18:35:43.714Z,23.03
2019-01-12T18:38:14.350Z,23.80
2019-01-12T18:40:47.957Z,29.97
2019-01-12T18:43:18.648Z,34.53
2019-01-12T18:45:49.591Z,36.13
2019-01-12T18:48:20.503Z,25.37
2019-01-12T18:50:51.711Z,33.53
2019-01-12T18:53:22.308Z,28.37
2019-01-12T18:55:53.895Z,25.40
2019-01-12T18:58:24.810Z,22.53
2019-01-12T19:00:55.698Z,27.50
2019-01-12T19:03:26.321Z,33.00
2019-01-12T19:05:56.998Z,32.23
2019-01-12T19:08:27.593Z,27.60
2019-01-12T19:11:00.653Z,29.17
2019-01-12T19:13:31.174Z,30.93
2019-01-12T19:16:01.815Z,29.87
2019-01-12T19:18:32.445Z,30.43
2019-01-12T19:21:03.857Z,31.90
2019-01-12T19:23:34.435Z,29.47
2019-01-12T19:26:05.230Z,31.20
2019-01-12T19:28:35.747Z,30.23
2019-01-12T19:31:07.201Z,27.63
2019-01-12T19:33:37.833Z,26.77
2019-01-12T19:36:10.076Z,24.87
2019-01-12T19:38:41.045Z,28.70
2019-01-12T19:41:11.547Z,27.50
2019-01-12T19:43:45.318Z,28.83
2019-01-12T19:46:18.853Z,25.27
2019-01-12T19:48:52.584Z,24.53
2019-01-12T19:51:26.592Z,20.17
2019-01-12T19:53:57.535Z,23.20
2019-01-12T19:56:28.138Z,24.40
2019-01-12T19:58:58.936Z,23.47
2019-01-12T20:01:29.742Z,22.60
2019-01-12T20:04:00.268Z,28.33
2019-01-12T20:06:30.911Z,24.67
2019-01-12T20:09:01.550Z,23.77
2019-01-12T20:11:32.298Z,27.40
2019-01-12T20:14:02.981Z,26.07
2019-01-12T20:16:33.693Z,24.57
2019-01-12T20:19:04.358Z,23.87
2019-01-12T20:21:36.018Z,23.47
2019-01-12T20:24:08.236Z,24.13
2019-01-12T20:26:39.088Z,27.53
2019-01-12T20:29:11.764Z,25.80
2019-01-12T20:31:59.376Z,23.50
2019-01-12T20:34:35.198Z,23.27
2019-01-12T20:37:23.500Z,23.90
2019-01-12T20:40:19.160Z,21.37
2019-01-12T20:43:11.535Z,21.80
2019-01-12T20:45:55.131Z,19.63
2019-01-12T20:48:35.989Z,20.97
2019-01-12T20:51:43.847Z,23.43
2019-01-12T20:54:46.425Z,26.53
2019-01-12T20:57:40.256Z,25.23
2019-01-12T21:00:33.625Z,22.30
2019-01-12T21:03:26.219Z,21.30
2019-01-12T21:06:02.467Z,21.73
2019-01-12T21:08:43.680Z,19.20
2019-01-12T21:11:45.419Z,19.13
2019-01-12T21:14:38.621Z,19.07
2019-01-12T21:17:09.730Z,17.23
2019-01-12T21:19:47.748Z,18.13
2019-01-12T21:22:13.078Z,16.37
2019-01-12T21:24:46.459Z,14.90
2019-01-12T21:27:17.088Z,14.30
2019-01-12T21:29:47.825Z,17.40
2019-01-12T21:32:19.237Z,14.13
2019-01-12T21:34:50.127Z,17.93
2019-01-12T21:37:20.712Z,16.37
2019-01-12T21:39:51.493Z,17.00
2019-01-12T21:42:22.154Z,16.40
2019-01-12T21:44:54.639Z,14.43
2019-01-12T21:47:25.325Z,18.40
2019-01-12T21:49:55.884Z,20.90
2019-01-12T21:52:26.612Z,19.47
2019-01-12T21:54:57.490Z,22.20
2019-01-12T21:57:29.878Z,15.63
2019-01-12T22:00:01.125Z,19.37
2019-01-12T22:02:32.132Z,15.80
2019-01-12T22:05:03.142Z,18.43
2019-01-12T22:07:33.719Z,21.37
2019-01-12T22:10:06.990Z,18.00
2019-01-12T22:12:37.567Z,17.43
2019-01-12T22:15:13.311Z,16.03
2019-01-12T22:17:43.938Z,15.80
2019-01-12T22:20:17.111Z,13.73
2019-01-12T22:22:47.740Z,12.97
2019-01-12T22:25:18.682Z,12.77
2019-01-12T22:27:49.654Z,11.20
2019-01-12T22:30:23.459Z,15.70
2019-01-12T22:32:54.920Z,10.47
2019-01-12T22:35:27.057Z,8.10
2019-01-12T22:38:03.093Z,11.17
2019-01-12T22:40:32.809Z,6.50
2019-01-12T22:43:03.479Z,6.90
2019-01-12T22:45:34.171Z,11.40
2019-01-12T22:48:05.119Z,8.80
2019-01-12T22:50:35.787Z,7.83
2019-01-12T22:53:08.843Z,9.37
2019-01-12T22:55:39.312Z,11.13
2019-01-12T22:58:10.321Z,11.53
2019-01-12T23:00:51.523Z,9.80
2019-01-12T23:03:22.807Z,11.67
2019-01-12T23:05:53.785Z,10.50
2019-01-12T23:08:24.556Z,9.20
2019-01-12T23:10:55.177Z,11.27
2019-01-12T23:13:26.977Z,9.93
2019-01-12T23:15:57.581Z,9.80
2019-01-12T23:18:28.397Z,9.10
2019-01-12T23:20:59.071Z,10.80
2019-01-12T23:23:29.948Z,10.93
2019-01-12T23:26:00.576Z,11.53
2019-01-12T23:28:32.070Z,10.13
2019-01-12T23:31:02.758Z,9.80
2019-01-12T23:33:37.771Z,10.93
2019-01-12T23:36:10.663Z,8.93
2019-01-12T23:38:41.082Z,10.10
2019-01-12T23:41:11.689Z,9.97
2019-01-12T23:43:42.806Z,9.30
2019-01-12T23:46:13.481Z,10.43
2019-01-12T23:48:47.217Z,7.87
2019-01-12T23:51:18.137Z,9.20
2019-01-12T23:53:48.750Z,9.60
2019-01-12T23:56:19.369Z,9.03
2019-01-12T23:58:53.552Z,8.97
